sensor_id;sensor_type;location;lat;lon;timestamp;P1;durP1;ratioP1;P2;durP2;ratioP2
73239;SDS011;61452;40.054;4.110;2022-12-08T00:03:19;1.00;;;0.90;;
73239;SDS011;61452;40.054;4.110;2022-12-08T00:08:21;1.15;;;0.90;;
73239;SDS011;61452;40.054;4.110;2022-12-08T00:13:42;1.35;;;0.70;;
73239;SDS011;61452;40.054;4.110;2022-12-08T00:18:44;1.13;;;0.93;;
73239;SDS011;61452;40.054;4.110;2022-12-08T00:23:46;1.88;;;1.10;;
73239;SDS011;61452;40.054;4.110;2022-12-08T00:28:48;2.15;;;0.90;;
73239;SDS011;61452;40.054;4.110;2022-12-08T00:33:50;1.23;;;0.82;;
73239;SDS011;61452;40.054;4.110;2022-12-08T00:38:52;1.55;;;0.90;;
73239;SDS011;61452;40.054;4.110;2022-12-08T00:43:55;0.90;;;0.70;;
73239;SDS011;61452;40.054;4.110;2022-12-08T00:48:57;1.42;;;1.00;;
73239;SDS011;61452;40.054;4.110;2022-12-08T00:53:59;1.25;;;1.05;;
73239;SDS011;61452;40.054;4.110;2022-12-08T00:59:05;1.42;;;0.95;;
73239;SDS011;61452;40.054;4.110;2022-12-08T01:04:09;1.48;;;1.00;;
73239;SDS011;61452;40.054;4.110;2022-12-08T01:09:14;1.40;;;1.08;;
73239;SDS011;61452;40.054;4.110;2022-12-08T01:14:17;1.70;;;0.82;;
73239;SDS011;61452;40.054;4.110;2022-12-08T01:19:19;1.40;;;1.00;;
73239;SDS011;61452;40.054;4.110;2022-12-08T01:24:22;1.20;;;0.90;;
73239;SDS011;61452;40.054;4.110;2022-12-08T01:29:25;1.00;;;0.80;;
73239;SDS011;61452;40.054;4.110;2022-12-08T01:34:28;1.77;;;0.90;;
73239;SDS011;61452;40.054;4.110;2022-12-08T01:39:30;1.08;;;0.80;;
73239;SDS011;61452;40.054;4.110;2022-12-08T01:49:34;1.00;;;0.80;;
73239;SDS011;61452;40.054;4.110;2022-12-08T01:54:42;1.50;;;0.98;;
73239;SDS011;61452;40.054;4.110;2022-12-08T01:59:52;1.25;;;0.80;;
73239;SDS011;61452;40.054;4.110;2022-12-08T02:04:57;1.33;;;0.82;;
73239;SDS011;61452;40.054;4.110;2022-12-08T02:10:01;1.73;;;0.90;;
73239;SDS011;61452;40.054;4.110;2022-12-08T02:15:04;1.23;;;0.70;;
73239;SDS011;61452;40.054;4.110;2022-12-08T02:20:29;1.45;;;1.02;;
73239;SDS011;61452;40.054;4.110;2022-12-08T02:26:01;0.95;;;0.80;;
73239;SDS011;61452;40.054;4.110;2022-12-08T02:31:42;2.08;;;0.90;;
73239;SDS011;61452;40.054;4.110;2022-12-08T02:36:56;1.00;;;0.80;;
73239;SDS011;61452;40.054;4.110;2022-12-08T02:42:30;0.93;;;0.73;;
73239;SDS011;61452;40.054;4.110;2022-12-08T02:47:37;1.35;;;0.93;;
73239;SDS011;61452;40.054;4.110;2022-12-08T02:52:42;0.95;;;0.77;;
73239;SDS011;61452;40.054;4.110;2022-12-08T03:13:20;1.75;;;0.73;;
73239;SDS011;61452;40.054;4.110;2022-12-08T03:18:30;1.20;;;0.80;;
73239;SDS011;61452;40.054;4.110;2022-12-08T03:23:35;2.05;;;0.82;;
73239;SDS011;61452;40.054;4.110;2022-12-08T03:28:39;0.70;;;0.60;;
73239;SDS011;61452;40.054;4.110;2022-12-08T03:33:42;1.23;;;0.88;;
73239;SDS011;61452;40.054;4.110;2022-12-08T03:38:49;0.90;;;0.80;;
73239;SDS011;61452;40.054;4.110;2022-12-08T03:43:54;1.25;;;0.98;;
73239;SDS011;61452;40.054;4.110;2022-12-08T03:48:58;1.40;;;0.85;;
73239;SDS011;61452;40.054;4.110;2022-12-08T03:54:00;1.48;;;0.77;;
73239;SDS011;61452;40.054;4.110;2022-12-08T03:59:03;1.33;;;0.80;;
73239;SDS011;61452;40.054;4.110;2022-12-08T04:09:08;1.98;;;0.88;;
73239;SDS011;61452;40.054;4.110;2022-12-08T04:14:10;1.35;;;0.60;;
73239;SDS011;61452;40.054;4.110;2022-12-08T04:19:13;0.93;;;0.73;;
73239;SDS011;61452;40.054;4.110;2022-12-08T04:24:16;1.45;;;1.15;;
73239;SDS011;61452;40.054;4.110;2022-12-08T04:29:18;1.35;;;0.63;;
73239;SDS011;61452;40.054;4.110;2022-12-08T04:34:20;0.93;;;0.70;;
73239;SDS011;61452;40.054;4.110;2022-12-08T04:39:22;1.85;;;0.60;;
73239;SDS011;61452;40.054;4.110;2022-12-08T04:44:24;1.85;;;0.80;;
73239;SDS011;61452;40.054;4.110;2022-12-08T04:49:26;0.90;;;0.60;;
73239;SDS011;61452;40.054;4.110;2022-12-08T04:54:28;1.42;;;0.80;;
73239;SDS011;61452;40.054;4.110;2022-12-08T04:59:30;1.55;;;0.80;;
73239;SDS011;61452;40.054;4.110;2022-12-08T05:04:32;0.85;;;0.77;;
73239;SDS011;61452;40.054;4.110;2022-12-08T05:09:34;1.02;;;0.73;;
73239;SDS011;61452;40.054;4.110;2022-12-08T05:14:36;0.88;;;0.60;;
73239;SDS011;61452;40.054;4.110;2022-12-08T05:19:39;1.00;;;0.70;;
73239;SDS011;61452;40.054;4.110;2022-12-08T05:24:41;0.88;;;0.63;;
73239;SDS011;61452;40.054;4.110;2022-12-08T05:29:47;1.00;;;0.70;;
73239;SDS011;61452;40.054;4.110;2022-12-08T05:34:50;0.82;;;0.57;;
73239;SDS011;61452;40.054;4.110;2022-12-08T05:39:52;1.13;;;0.70;;
73239;SDS011;61452;40.054;4.110;2022-12-08T05:44:54;1.08;;;0.70;;
73239;SDS011;61452;40.054;4.110;2022-12-08T05:49:56;0.60;;;0.52;;
73239;SDS011;61452;40.054;4.110;2022-12-08T05:54:58;0.63;;;0.50;;
73239;SDS011;61452;40.054;4.110;2022-12-08T06:00:01;0.80;;;0.65;;
73239;SDS011;61452;40.054;4.110;2022-12-08T06:05:12;1.42;;;0.70;;
73239;SDS011;61452;40.054;4.110;2022-12-08T06:10:14;0.50;;;0.40;;
73239;SDS011;61452;40.054;4.110;2022-12-08T06:15:16;1.25;;;0.50;;
73239;SDS011;61452;40.054;4.110;2022-12-08T06:20:18;0.73;;;0.50;;
73239;SDS011;61452;40.054;4.110;2022-12-08T06:25:20;1.25;;;0.50;;
73239;SDS011;61452;40.054;4.110;2022-12-08T06:30:22;1.50;;;0.70;;
73239;SDS011;61452;40.054;4.110;2022-12-08T06:35:24;0.65;;;0.60;;
73239;SDS011;61452;40.054;4.110;2022-12-08T06:40:27;0.98;;;0.55;;
73239;SDS011;61452;40.054;4.110;2022-12-08T06:45:29;1.17;;;0.60;;
73239;SDS011;61452;40.054;4.110;2022-12-08T06:50:31;1.00;;;0.70;;
73239;SDS011;61452;40.054;4.110;2022-12-08T06:55:35;1.63;;;0.80;;
73239;SDS011;61452;40.054;4.110;2022-12-08T07:01:02;1.33;;;0.90;;
73239;SDS011;61452;40.054;4.110;2022-12-08T07:06:17;0.88;;;0.70;;
73239;SDS011;61452;40.054;4.110;2022-12-08T07:16:23;1.20;;;0.60;;
73239;SDS011;61452;40.054;4.110;2022-12-08T07:21:26;0.95;;;0.65;;
73239;SDS011;61452;40.054;4.110;2022-12-08T07:26:28;2.08;;;0.55;;
73239;SDS011;61452;40.054;4.110;2022-12-08T07:31:30;0.95;;;0.50;;
73239;SDS011;61452;40.054;4.110;2022-12-08T07:36:32;2.00;;;0.60;;
73239;SDS011;61452;40.054;4.110;2022-12-08T07:41:34;1.73;;;0.50;;
73239;SDS011;61452;40.054;4.110;2022-12-08T07:46:36;0.85;;;0.63;;
73239;SDS011;61452;40.054;4.110;2022-12-08T07:51:38;0.57;;;0.47;;
73239;SDS011;61452;40.054;4.110;2022-12-08T07:56:40;0.90;;;0.60;;
73239;SDS011;61452;40.054;4.110;2022-12-08T08:01:42;1.00;;;0.60;;
73239;SDS011;61452;40.054;4.110;2022-12-08T08:06:47;1.05;;;0.65;;
73239;SDS011;61452;40.054;4.110;2022-12-08T08:11:49;0.98;;;0.57;;
73239;SDS011;61452;40.054;4.110;2022-12-08T08:17:11;1.13;;;0.45;;
73239;SDS011;61452;40.054;4.110;2022-12-08T08:22:13;1.25;;;0.50;;
73239;SDS011;61452;40.054;4.110;2022-12-08T08:27:16;2.20;;;0.50;;
73239;SDS011;61452;40.054;4.110;2022-12-08T08:32:18;1.13;;;0.50;;
73239;SDS011;61452;40.054;4.110;2022-12-08T08:37:20;0.85;;;0.50;;
73239;SDS011;61452;40.054;4.110;2022-12-08T08:42:22;0.60;;;0.50;;
73239;SDS011;61452;40.054;4.110;2022-12-08T08:47:25;0.95;;;0.60;;
73239;SDS011;61452;40.054;4.110;2022-12-08T08:52:27;0.82;;;0.57;;
73239;SDS011;61452;40.054;4.110;2022-12-08T08:57:29;0.60;;;0.60;;
73239;SDS011;61452;40.054;4.110;2022-12-08T09:02:31;1.17;;;0.60;;
73239;SDS011;61452;40.054;4.110;2022-12-08T09:07:33;1.00;;;0.40;;
73239;SDS011;61452;40.054;4.110;2022-12-08T09:12:35;1.33;;;0.50;;
73239;SDS011;61452;40.054;4.110;2022-12-08T09:17:37;0.80;;;0.50;;
73239;SDS011;61452;40.054;4.110;2022-12-08T09:22:40;1.40;;;0.55;;
73239;SDS011;61452;40.054;4.110;2022-12-08T09:27:42;1.35;;;0.80;;
73239;SDS011;61452;40.054;4.110;2022-12-08T09:32:44;0.70;;;0.50;;
73239;SDS011;61452;40.054;4.110;2022-12-08T09:37:47;1.10;;;0.50;;
73239;SDS011;61452;40.054;4.110;2022-12-08T09:43:04;0.82;;;0.45;;
73239;SDS011;61452;40.054;4.110;2022-12-08T09:48:23;1.15;;;0.47;;
73239;SDS011;61452;40.054;4.110;2022-12-08T10:09:00;1.10;;;0.50;;
73239;SDS011;61452;40.054;4.110;2022-12-08T10:14:21;0.45;;;0.30;;
73239;SDS011;61452;40.054;4.110;2022-12-08T10:24:38;0.90;;;0.40;;
73239;SDS011;61452;40.054;4.110;2022-12-08T10:29:44;1.15;;;0.30;;
73239;SDS011;61452;40.054;4.110;2022-12-08T10:40:22;0.75;;;0.40;;
73239;SDS011;61452;40.054;4.110;2022-12-08T10:45:37;0.75;;;0.50;;
73239;SDS011;61452;40.054;4.110;2022-12-08T11:01:04;1.52;;;0.70;;
73239;SDS011;61452;40.054;4.110;2022-12-08T11:06:23;0.75;;;0.40;;
73239;SDS011;61452;40.054;4.110;2022-12-08T11:16:40;0.88;;;0.52;;
73239;SDS011;61452;40.054;4.110;2022-12-08T11:21:43;0.80;;;0.60;;
73239;SDS011;61452;40.054;4.110;2022-12-08T11:26:51;1.25;;;0.50;;
73239;SDS011;61452;40.054;4.110;2022-12-08T11:32:05;1.13;;;0.60;;
73239;SDS011;61452;40.054;4.110;2022-12-08T11:37:21;0.75;;;0.50;;
73239;SDS011;61452;40.054;4.110;2022-12-08T11:42:37;1.60;;;0.50;;
73239;SDS011;61452;40.054;4.110;2022-12-08T11:48:04;0.68;;;0.43;;
73239;SDS011;61452;40.054;4.110;2022-12-08T11:53:16;1.05;;;0.40;;
73239;SDS011;61452;40.054;4.110;2022-12-08T11:58:47;0.90;;;0.60;;
73239;SDS011;61452;40.054;4.110;2022-12-08T12:20:31;0.77;;;0.60;;
73239;SDS011;61452;40.054;4.110;2022-12-08T12:25:36;2.45;;;0.47;;
73239;SDS011;61452;40.054;4.110;2022-12-08T12:30:51;1.48;;;0.65;;
73239;SDS011;61452;40.054;4.110;2022-12-08T12:36:03;1.23;;;0.65;;
73239;SDS011;61452;40.054;4.110;2022-12-08T12:41:08;1.13;;;0.65;;
73239;SDS011;61452;40.054;4.110;2022-12-08T12:51:34;1.27;;;0.75;;
73239;SDS011;61452;40.054;4.110;2022-12-08T12:56:47;0.60;;;0.40;;
73239;SDS011;61452;40.054;4.110;2022-12-08T13:01:53;1.65;;;0.60;;
73239;SDS011;61452;40.054;4.110;2022-12-08T13:06:56;0.82;;;0.40;;
73239;SDS011;61452;40.054;4.110;2022-12-08T13:11:59;0.93;;;0.55;;
73239;SDS011;61452;40.054;4.110;2022-12-08T13:17:10;1.55;;;0.55;;
73239;SDS011;61452;40.054;4.110;2022-12-08T13:28:00;1.42;;;0.50;;
73239;SDS011;61452;40.054;4.110;2022-12-08T13:33:38;1.15;;;0.77;;
73239;SDS011;61452;40.054;4.110;2022-12-08T13:38:41;1.17;;;0.50;;
73239;SDS011;61452;40.054;4.110;2022-12-08T13:43:51;1.15;;;0.60;;
73239;SDS011;61452;40.054;4.110;2022-12-08T13:49:43;1.58;;;0.50;;
73239;SDS011;61452;40.054;4.110;2022-12-08T13:55:14;3.03;;;0.50;;
73239;SDS011;61452;40.054;4.110;2022-12-08T14:00:40;1.80;;;0.60;;
73239;SDS011;61452;40.054;4.110;2022-12-08T14:05:42;0.95;;;0.63;;
73239;SDS011;61452;40.054;4.110;2022-12-08T14:11:05;1.02;;;0.60;;
73239;SDS011;61452;40.054;4.110;2022-12-08T14:16:14;1.20;;;0.63;;
73239;SDS011;61452;40.054;4.110;2022-12-08T14:21:29;1.25;;;0.60;;
73239;SDS011;61452;40.054;4.110;2022-12-08T14:26:36;1.02;;;0.60;;
73239;SDS011;61452;40.054;4.110;2022-12-08T14:31:39;1.90;;;0.50;;
73239;SDS011;61452;40.054;4.110;2022-12-08T14:36:41;1.10;;;0.60;;
73239;SDS011;61452;40.054;4.110;2022-12-08T14:41:57;1.02;;;0.60;;
73239;SDS011;61452;40.054;4.110;2022-12-08T14:47:17;0.50;;;0.30;;
73239;SDS011;61452;40.054;4.110;2022-12-08T14:52:21;2.05;;;0.55;;
73239;SDS011;61452;40.054;4.110;2022-12-08T14:57:26;1.55;;;0.95;;
73239;SDS011;61452;40.054;4.110;2022-12-08T15:02:33;0.60;;;0.60;;
73239;SDS011;61452;40.054;4.110;2022-12-08T15:07:46;1.98;;;0.98;;
73239;SDS011;61452;40.054;4.110;2022-12-08T15:18:10;1.33;;;0.40;;
73239;SDS011;61452;40.054;4.110;2022-12-08T15:23:27;0.70;;;0.40;;
73239;SDS011;61452;40.054;4.110;2022-12-08T15:28:38;1.45;;;0.40;;
73239;SDS011;61452;40.054;4.110;2022-12-08T15:33:40;0.65;;;0.50;;
73239;SDS011;61452;40.054;4.110;2022-12-08T15:38:43;0.52;;;0.40;;
73239;SDS011;61452;40.054;4.110;2022-12-08T15:43:45;0.80;;;0.40;;
73239;SDS011;61452;40.054;4.110;2022-12-08T15:48:47;0.80;;;0.50;;
73239;SDS011;61452;40.054;4.110;2022-12-08T15:53:55;1.73;;;0.40;;
73239;SDS011;61452;40.054;4.110;2022-12-08T15:58:57;0.82;;;0.73;;
73239;SDS011;61452;40.054;4.110;2022-12-08T16:03:59;0.70;;;0.40;;
73239;SDS011;61452;40.054;4.110;2022-12-08T16:14:27;2.38;;;0.75;;
73239;SDS011;61452;40.054;4.110;2022-12-08T16:19:49;0.57;;;0.40;;
73239;SDS011;61452;40.054;4.110;2022-12-08T16:24:51;1.85;;;0.52;;
73239;SDS011;61452;40.054;4.110;2022-12-08T16:29:54;1.42;;;0.43;;
73239;SDS011;61452;40.054;4.110;2022-12-08T16:34:57;0.73;;;0.30;;
73239;SDS011;61452;40.054;4.110;2022-12-08T16:39:59;1.10;;;0.50;;
73239;SDS011;61452;40.054;4.110;2022-12-08T16:45:02;0.70;;;0.40;;
73239;SDS011;61452;40.054;4.110;2022-12-08T16:50:14;1.98;;;0.50;;
73239;SDS011;61452;40.054;4.110;2022-12-08T16:55:18;0.98;;;0.55;;
73239;SDS011;61452;40.054;4.110;2022-12-08T17:00:21;0.80;;;0.50;;
73239;SDS011;61452;40.054;4.110;2022-12-08T17:05:25;0.85;;;0.52;;
73239;SDS011;61452;40.054;4.110;2022-12-08T17:10:28;1.35;;;0.50;;
73239;SDS011;61452;40.054;4.110;2022-12-08T17:15:32;0.47;;;0.32;;
73239;SDS011;61452;40.054;4.110;2022-12-08T17:20:34;1.38;;;0.60;;
73239;SDS011;61452;40.054;4.110;2022-12-08T17:25:37;1.65;;;0.57;;
73239;SDS011;61452;40.054;4.110;2022-12-08T17:30:39;0.88;;;0.60;;
73239;SDS011;61452;40.054;4.110;2022-12-08T17:35:45;0.60;;;0.30;;
73239;SDS011;61452;40.054;4.110;2022-12-08T17:40:51;0.70;;;0.50;;
73239;SDS011;61452;40.054;4.110;2022-12-08T17:45:59;1.42;;;0.50;;
73239;SDS011;61452;40.054;4.110;2022-12-08T17:51:01;1.45;;;1.05;;
73239;SDS011;61452;40.054;4.110;2022-12-08T17:56:03;2.13;;;0.57;;
73239;SDS011;61452;40.054;4.110;2022-12-08T18:01:06;0.95;;;0.35;;
73239;SDS011;61452;40.054;4.110;2022-12-08T18:06:10;1.85;;;0.40;;
73239;SDS011;61452;40.054;4.110;2022-12-08T18:11:14;0.80;;;0.52;;
73239;SDS011;61452;40.054;4.110;2022-12-08T18:16:20;1.30;;;0.60;;
73239;SDS011;61452;40.054;4.110;2022-12-08T18:21:23;2.17;;;0.50;;
73239;SDS011;61452;40.054;4.110;2022-12-08T18:26:25;0.98;;;0.45;;
73239;SDS011;61452;40.054;4.110;2022-12-08T18:31:28;1.42;;;0.45;;
73239;SDS011;61452;40.054;4.110;2022-12-08T18:36:30;1.05;;;0.50;;
73239;SDS011;61452;40.054;4.110;2022-12-08T18:41:32;0.60;;;0.30;;
73239;SDS011;61452;40.054;4.110;2022-12-08T18:46:34;0.82;;;0.30;;
73239;SDS011;61452;40.054;4.110;2022-12-08T18:51:36;0.40;;;0.20;;
73239;SDS011;61452;40.054;4.110;2022-12-08T18:56:38;1.33;;;0.32;;
73239;SDS011;61452;40.054;4.110;2022-12-08T19:01:41;1.20;;;0.40;;
73239;SDS011;61452;40.054;4.110;2022-12-08T19:06:43;0.90;;;0.40;;
73239;SDS011;61452;40.054;4.110;2022-12-08T19:11:46;1.30;;;0.30;;
73239;SDS011;61452;40.054;4.110;2022-12-08T19:16:48;0.70;;;0.50;;
73239;SDS011;61452;40.054;4.110;2022-12-08T19:21:50;1.08;;;0.50;;
73239;SDS011;61452;40.054;4.110;2022-12-08T19:26:52;1.08;;;0.30;;
73239;SDS011;61452;40.054;4.110;2022-12-08T19:31:55;1.30;;;0.40;;
73239;SDS011;61452;40.054;4.110;2022-12-08T19:36:57;0.60;;;0.28;;
73239;SDS011;61452;40.054;4.110;2022-12-08T19:41:59;1.50;;;0.50;;
73239;SDS011;61452;40.054;4.110;2022-12-08T19:47:23;0.98;;;0.55;;
73239;SDS011;61452;40.054;4.110;2022-12-08T19:52:26;0.90;;;0.40;;
73239;SDS011;61452;40.054;4.110;2022-12-08T19:57:28;0.80;;;0.40;;
73239;SDS011;61452;40.054;4.110;2022-12-08T20:02:30;0.77;;;0.40;;
73239;SDS011;61452;40.054;4.110;2022-12-08T20:07:33;0.65;;;0.30;;
73239;SDS011;61452;40.054;4.110;2022-12-08T20:12:35;1.50;;;0.40;;
73239;SDS011;61452;40.054;4.110;2022-12-08T20:17:37;0.55;;;0.40;;
73239;SDS011;61452;40.054;4.110;2022-12-08T20:22:40;1.45;;;0.40;;
73239;SDS011;61452;40.054;4.110;2022-12-08T20:27:42;0.57;;;0.40;;
73239;SDS011;61452;40.054;4.110;2022-12-08T20:32:44;0.85;;;0.40;;
73239;SDS011;61452;40.054;4.110;2022-12-08T20:37:46;0.98;;;0.40;;
73239;SDS011;61452;40.054;4.110;2022-12-08T20:42:48;0.70;;;0.30;;
73239;SDS011;61452;40.054;4.110;2022-12-08T20:47:50;0.45;;;0.43;;
73239;SDS011;61452;40.054;4.110;2022-12-08T20:52:52;1.05;;;0.40;;
73239;SDS011;61452;40.054;4.110;2022-12-08T20:57:55;1.42;;;0.63;;
73239;SDS011;61452;40.054;4.110;2022-12-08T21:02:57;1.27;;;0.73;;
73239;SDS011;61452;40.054;4.110;2022-12-08T21:07:59;1.52;;;0.50;;
73239;SDS011;61452;40.054;4.110;2022-12-08T21:13:02;0.90;;;0.50;;
73239;SDS011;61452;40.054;4.110;2022-12-08T21:18:04;0.93;;;0.35;;
73239;SDS011;61452;40.054;4.110;2022-12-08T21:23:07;0.65;;;0.45;;
73239;SDS011;61452;40.054;4.110;2022-12-08T21:28:09;1.23;;;0.52;;
73239;SDS011;61452;40.054;4.110;2022-12-08T21:33:12;0.65;;;0.40;;
73239;SDS011;61452;40.054;4.110;2022-12-08T21:38:14;0.85;;;0.20;;
73239;SDS011;61452;40.054;4.110;2022-12-08T21:43:16;0.98;;;0.50;;
73239;SDS011;61452;40.054;4.110;2022-12-08T21:48:18;1.05;;;0.50;;
73239;SDS011;61452;40.054;4.110;2022-12-08T21:53:21;1.65;;;0.45;;
73239;SDS011;61452;40.054;4.110;2022-12-08T21:58:23;1.50;;;0.85;;
73239;SDS011;61452;40.054;4.110;2022-12-08T22:03:26;1.27;;;0.65;;
73239;SDS011;61452;40.054;4.110;2022-12-08T22:08:30;1.52;;;0.47;;
73239;SDS011;61452;40.054;4.110;2022-12-08T22:13:33;0.68;;;0.40;;
73239;SDS011;61452;40.054;4.110;2022-12-08T22:18:36;1.00;;;0.52;;
73239;SDS011;61452;40.054;4.110;2022-12-08T22:23:38;1.33;;;0.60;;
73239;SDS011;61452;40.054;4.110;2022-12-08T22:28:41;0.77;;;0.55;;
73239;SDS011;61452;40.054;4.110;2022-12-08T22:33:43;1.15;;;0.57;;
73239;SDS011;61452;40.054;4.110;2022-12-08T22:38:45;1.25;;;0.40;;
73239;SDS011;61452;40.054;4.110;2022-12-08T22:43:48;0.88;;;0.40;;
73239;SDS011;61452;40.054;4.110;2022-12-08T22:48:51;0.68;;;0.50;;
73239;SDS011;61452;40.054;4.110;2022-12-08T22:53:54;1.67;;;0.40;;
73239;SDS011;61452;40.054;4.110;2022-12-08T22:58:56;0.73;;;0.43;;
73239;SDS011;61452;40.054;4.110;2022-12-08T23:03:59;0.40;;;0.30;;
73239;SDS011;61452;40.054;4.110;2022-12-08T23:09:01;0.95;;;0.40;;
73239;SDS011;61452;40.054;4.110;2022-12-08T23:14:04;0.57;;;0.40;;
73239;SDS011;61452;40.054;4.110;2022-12-08T23:19:06;1.05;;;0.50;;
73239;SDS011;61452;40.054;4.110;2022-12-08T23:24:08;0.73;;;0.55;;
73239;SDS011;61452;40.054;4.110;2022-12-08T23:29:11;0.88;;;0.57;;
73239;SDS011;61452;40.054;4.110;2022-12-08T23:34:13;1.50;;;0.63;;
73239;SDS011;61452;40.054;4.110;2022-12-08T23:39:15;0.90;;;0.60;;
73239;SDS011;61452;40.054;4.110;2022-12-08T23:44:17;1.23;;;0.50;;
73239;SDS011;61452;40.054;4.110;2022-12-08T23:49:19;1.70;;;0.50;;
73239;SDS011;61452;40.054;4.110;2022-12-08T23:54:23;0.68;;;0.40;;
73239;SDS011;61452;40.054;4.110;2022-12-08T23:59:25;1.42;;;0.50;;
